createdAt,value
2023-02-18T00:01:15.849Z,10.02
2023-02-18T00:03:42.639Z,9.18
2023-02-18T00:06:23.895Z,10.02
2023-02-18T00:08:51.183Z,8.27
2023-02-18T00:11:19.389Z,9.73
2023-02-18T00:13:53.878Z,10.63
2023-02-18T00:16:21.873Z,9.13
2023-02-18T00:18:48.877Z,10.02
2023-02-18T00:21:15.789Z,9.65
2023-02-18T00:23:44.013Z,10.35
2023-02-18T00:26:13.529Z,9.55
2023-02-18T00:28:41.191Z,9.48
2023-02-18T00:31:13.819Z,9.50
2023-02-18T00:33:41.180Z,9.80
2023-02-18T00:36:11.314Z,9.13
2023-02-18T00:38:38.637Z,9.20
2023-02-18T00:41:06.710Z,8.52
2023-02-18T00:43:33.376Z,7.53
2023-02-18T00:46:00.134Z,8.48
2023-02-18T00:48:26.818Z,9.43
2023-02-18T00:50:53.535Z,8.77
2023-02-18T00:53:20.127Z,8.85
2023-02-18T00:55:49.785Z,8.80
2023-02-18T00:58:16.513Z,8.90
2023-02-18T01:00:43.371Z,8.18
2023-02-18T01:03:10.385Z,8.45
2023-02-18T01:05:38.411Z,9.05
2023-02-18T01:08:06.214Z,9.43
2023-02-18T01:10:33.158Z,7.22
2023-02-18T01:12:59.849Z,8.88
2023-02-18T01:15:26.523Z,8.20
2023-02-18T01:17:53.383Z,8.43
2023-02-18T01:20:20.180Z,7.80
2023-02-18T01:22:47.085Z,8.23
2023-02-18T01:25:14.601Z,8.02
2023-02-18T01:27:41.538Z,6.38
2023-02-18T01:30:12.117Z,7.45
2023-02-18T01:32:38.725Z,5.15
2023-02-18T01:35:06.568Z,6.85
2023-02-18T01:37:33.752Z,7.00
2023-02-18T01:40:00.412Z,7.97
2023-02-18T01:42:29.564Z,7.28
2023-02-18T01:45:39.798Z,7.03
2023-02-18T01:48:20.106Z,6.97
2023-02-18T01:50:51.012Z,8.23
2023-02-18T01:53:23.574Z,7.20
2023-02-18T01:55:50.498Z,6.30
2023-02-18T01:58:17.924Z,5.95
2023-02-18T02:00:44.624Z,6.78
2023-02-18T02:03:11.309Z,5.70
2023-02-18T02:05:38.024Z,6.00
2023-02-18T02:08:05.773Z,5.90
2023-02-18T02:11:02.360Z,5.35
2023-02-18T02:13:51.226Z,5.63
2023-02-18T02:16:32.904Z,6.20
2023-02-18T02:19:54.906Z,5.13
2023-02-18T02:22:51.909Z,4.60
2023-02-18T02:25:32.164Z,5.80
2023-02-18T02:28:24.782Z,5.57
2023-02-18T02:31:13.078Z,6.43
2023-02-18T02:33:48.607Z,7.57
2023-02-18T02:36:36.251Z,7.57
2023-02-18T02:39:19.734Z,7.03
2023-02-18T02:42:23.206Z,8.90
2023-02-18T02:45:13.134Z,8.35
2023-02-18T02:47:56.563Z,9.75
2023-02-18T02:50:51.442Z,10.32
2023-02-18T02:53:24.553Z,9.55
2023-02-18T02:55:51.134Z,9.80
2023-02-18T02:58:19.446Z,7.88
2023-02-18T03:01:04.552Z,8.20
2023-02-18T03:03:49.183Z,6.38
2023-02-18T03:06:58.081Z,9.10
2023-02-18T03:09:42.760Z,6.82
2023-02-18T03:12:30.673Z,8.93
2023-02-18T03:15:10.726Z,7.95
2023-02-18T03:17:46.013Z,8.93
2023-02-18T03:20:39.262Z,7.43
2023-02-18T03:23:11.688Z,6.88
2023-02-18T03:25:40.105Z,9.55
2023-02-18T03:28:15.782Z,8.85
2023-02-18T03:30:58.643Z,8.20
2023-02-18T03:33:56.789Z,8.05
2023-02-18T03:36:24.504Z,8.35
2023-02-18T03:39:04.139Z,7.93
2023-02-18T03:41:31.052Z,7.35
2023-02-18T03:44:04.875Z,7.07
2023-02-18T03:46:33.048Z,6.20
2023-02-18T03:48:59.950Z,5.68
2023-02-18T03:51:27.016Z,4.63
2023-02-18T03:53:53.885Z,5.85
2023-02-18T03:56:21.479Z,6.22
2023-02-18T03:58:48.178Z,4.03
2023-02-18T04:01:15.373Z,4.05
2023-02-18T04:03:42.107Z,3.60
2023-02-18T04:06:09.132Z,3.40
2023-02-18T04:08:36.226Z,3.70
2023-02-18T04:11:02.888Z,3.03
2023-02-18T04:13:29.465Z,2.60
2023-02-18T04:15:56.156Z,2.67
2023-02-18T04:18:22.921Z,1.90
2023-02-18T04:20:49.736Z,1.52
2023-02-18T04:23:16.393Z,1.90
2023-02-18T04:25:43.007Z,1.55
2023-02-18T04:28:11.256Z,1.45
2023-02-18T04:30:37.941Z,1.10
2023-02-18T04:33:04.742Z,1.52
2023-02-18T04:35:31.379Z,0.95
2023-02-18T04:37:58.000Z,1.20
2023-02-18T04:40:26.594Z,1.00
2023-02-18T04:42:53.232Z,1.02
2023-02-18T04:45:19.803Z,1.15
2023-02-18T04:47:46.358Z,1.00
2023-02-18T04:50:12.941Z,1.02
2023-02-18T04:52:39.527Z,1.10
2023-02-18T04:55:06.585Z,1.10
2023-02-18T04:57:33.360Z,1.13
2023-02-18T05:00:00.083Z,1.40
2023-02-18T05:02:26.781Z,0.77
2023-02-18T05:04:53.418Z,1.13
2023-02-18T05:07:20.007Z,1.25
2023-02-18T05:09:46.660Z,1.20
2023-02-18T05:12:13.249Z,1.42
2023-02-18T05:14:39.884Z,1.00
2023-02-18T05:17:06.473Z,1.17
2023-02-18T05:19:33.149Z,1.05
2023-02-18T05:21:59.873Z,1.00
2023-02-18T05:24:26.442Z,1.10
2023-02-18T05:26:53.084Z,1.33
2023-02-18T05:29:19.881Z,1.00
2023-02-18T05:31:46.585Z,1.13
2023-02-18T05:34:13.295Z,1.35
2023-02-18T05:36:39.955Z,1.35
2023-02-18T05:39:06.604Z,1.13
2023-02-18T05:41:33.201Z,1.40
2023-02-18T05:44:18.204Z,1.15
2023-02-18T05:46:44.899Z,1.48
2023-02-18T05:49:11.967Z,1.40
2023-02-18T05:51:38.755Z,1.50
2023-02-18T05:54:05.680Z,1.23
2023-02-18T05:56:32.272Z,1.42
2023-02-18T05:58:58.876Z,1.77
2023-02-18T06:01:25.657Z,1.98
2023-02-18T06:03:52.230Z,1.88
2023-02-18T06:06:18.906Z,2.20
2023-02-18T06:08:45.478Z,2.30
2023-02-18T06:11:12.057Z,2.40
2023-02-18T06:13:38.637Z,2.13
2023-02-18T06:16:05.665Z,2.15
2023-02-18T06:18:32.392Z,1.85
2023-02-18T06:20:59.006Z,1.70
2023-02-18T06:23:25.590Z,1.73
2023-02-18T06:25:52.183Z,1.50
2023-02-18T06:28:18.837Z,1.92
2023-02-18T06:30:45.893Z,1.95
2023-02-18T06:33:12.906Z,2.10
2023-02-18T06:35:39.566Z,1.90
2023-02-18T06:38:06.442Z,1.83
2023-02-18T06:40:33.157Z,1.60
2023-02-18T06:42:59.892Z,1.70
2023-02-18T06:45:26.556Z,1.75
2023-02-18T06:47:53.131Z,1.73
2023-02-18T06:50:19.765Z,1.65
2023-02-18T06:52:46.484Z,1.60
2023-02-18T06:55:13.102Z,1.50
2023-02-18T06:57:39.697Z,1.40
2023-02-18T07:00:07.052Z,1.20
2023-02-18T07:02:33.647Z,1.33
2023-02-18T07:05:00.275Z,1.40
2023-02-18T07:07:26.896Z,1.50
2023-02-18T07:09:53.452Z,1.40
2023-02-18T07:12:20.052Z,1.30
2023-02-18T07:14:46.685Z,1.10
2023-02-18T07:17:13.888Z,1.20
2023-02-18T07:19:40.604Z,1.10
2023-02-18T07:22:07.379Z,1.20
2023-02-18T07:24:34.033Z,1.13
2023-02-18T07:27:00.666Z,1.25
2023-02-18T07:29:27.278Z,1.10
2023-02-18T07:31:54.275Z,1.00
2023-02-18T07:34:21.099Z,1.00
2023-02-18T07:36:47.752Z,1.10
2023-02-18T07:39:14.359Z,1.20
2023-02-18T07:41:40.942Z,1.33
2023-02-18T07:44:07.497Z,1.40
2023-02-18T07:46:34.064Z,1.52
2023-02-18T07:49:00.653Z,1.73
2023-02-18T07:51:27.300Z,1.10
2023-02-18T07:53:53.886Z,1.30
2023-02-18T07:56:20.479Z,1.08
2023-02-18T07:58:47.078Z,1.20
2023-02-18T08:01:15.488Z,1.40
2023-02-18T08:03:42.553Z,1.38
2023-02-18T08:06:41.076Z,1.63
2023-02-18T08:09:08.719Z,1.92
2023-02-18T08:11:35.668Z,1.60
2023-02-18T08:14:02.230Z,2.40
2023-02-18T08:16:29.100Z,2.22
2023-02-18T08:18:55.829Z,2.13
2023-02-18T08:21:24.955Z,2.50
2023-02-18T08:23:52.151Z,3.30
2023-02-18T08:26:19.733Z,2.22
2023-02-18T08:28:47.535Z,2.40
2023-02-18T08:31:22.742Z,2.33
2023-02-18T08:33:49.858Z,1.73
2023-02-18T08:36:16.533Z,1.90
2023-02-18T08:38:43.312Z,2.08
2023-02-18T08:41:10.716Z,2.03
2023-02-18T08:43:37.602Z,1.98
2023-02-18T08:46:04.604Z,2.45
2023-02-18T08:48:31.944Z,2.20
2023-02-18T08:50:58.938Z,2.28
2023-02-18T08:53:25.693Z,1.85
2023-02-18T08:55:52.489Z,2.05
2023-02-18T08:58:19.137Z,1.73
2023-02-18T09:00:45.801Z,1.90
2023-02-18T09:03:14.193Z,2.03
2023-02-18T09:05:40.903Z,1.80
2023-02-18T09:08:07.616Z,1.83
2023-02-18T09:10:34.833Z,2.35
2023-02-18T09:13:01.581Z,1.90
2023-02-18T09:15:28.244Z,2.67
2023-02-18T09:17:54.839Z,2.45
2023-02-18T09:20:21.544Z,3.08
2023-02-18T09:22:48.277Z,2.28
2023-02-18T09:25:14.937Z,2.45
2023-02-18T09:27:41.564Z,2.60
2023-02-18T09:30:08.578Z,1.85
2023-02-18T09:32:35.691Z,2.97
2023-02-18T09:35:03.884Z,2.33
2023-02-18T09:37:30.884Z,3.03
2023-02-18T09:39:57.526Z,2.65
2023-02-18T09:42:30.300Z,3.33
2023-02-18T09:45:02.252Z,2.70
2023-02-18T09:47:37.077Z,2.90
2023-02-18T09:50:26.217Z,2.58
2023-02-18T09:52:54.119Z,3.63
2023-02-18T09:55:38.779Z,2.58
2023-02-18T09:58:40.340Z,3.42
2023-02-18T10:01:15.809Z,2.55
2023-02-18T10:03:44.215Z,3.08
2023-02-18T10:06:19.998Z,2.67
2023-02-18T10:08:50.554Z,2.25
2023-02-18T10:11:22.097Z,2.40
2023-02-18T10:13:49.170Z,2.70
2023-02-18T10:16:19.040Z,2.75
2023-02-18T10:18:49.204Z,2.60
2023-02-18T10:21:20.146Z,2.35
2023-02-18T10:23:59.547Z,2.88
2023-02-18T10:26:26.798Z,2.13
2023-02-18T10:28:53.513Z,2.88
2023-02-18T10:31:35.798Z,2.85
2023-02-18T10:34:34.629Z,2.70
2023-02-18T10:37:19.929Z,2.60
2023-02-18T10:39:58.183Z,3.15
2023-02-18T10:42:45.885Z,2.30
2023-02-18T10:45:35.780Z,2.50
2023-02-18T10:48:22.127Z,3.28
2023-02-18T10:50:50.137Z,2.83
2023-02-18T10:53:26.134Z,3.00
2023-02-18T10:55:54.500Z,2.75
2023-02-18T10:58:46.983Z,2.65
2023-02-18T11:01:16.796Z,2.75
2023-02-18T11:03:46.517Z,2.53
2023-02-18T11:06:19.880Z,2.80
2023-02-18T11:08:47.422Z,3.03
2023-02-18T11:11:45.687Z,2.88
2023-02-18T11:14:17.947Z,3.00
2023-02-18T11:16:46.981Z,3.00
2023-02-18T11:19:39.066Z,3.08
2023-02-18T11:22:25.146Z,2.50
2023-02-18T11:24:59.639Z,2.85
2023-02-18T11:27:31.952Z,2.80
2023-02-18T11:30:27.698Z,2.90
2023-02-18T11:33:01.506Z,2.47
2023-02-18T11:35:31.682Z,2.60
2023-02-18T11:38:00.338Z,2.90
2023-02-18T11:40:31.647Z,2.17
2023-02-18T11:43:13.393Z,2.40
2023-02-18T11:45:40.337Z,2.13
2023-02-18T11:48:19.564Z,2.28
2023-02-18T11:50:52.090Z,2.50
2023-02-18T11:53:31.093Z,2.63
2023-02-18T11:56:00.223Z,2.47
2023-02-18T11:58:28.197Z,2.83
2023-02-18T12:00:58.937Z,2.55
2023-02-18T12:03:25.490Z,2.78
2023-02-18T12:05:52.470Z,3.10
2023-02-18T12:08:26.964Z,3.00
2023-02-18T12:11:31.994Z,2.30
2023-02-18T12:13:59.612Z,2.63
2023-02-18T12:16:57.415Z,2.45
2023-02-18T12:20:00.865Z,2.25
2023-02-18T12:22:30.507Z,2.05
2023-02-18T12:25:06.180Z,1.80
2023-02-18T12:27:57.633Z,2.50
2023-02-18T12:30:50.455Z,2.45
2023-02-18T12:33:35.947Z,2.40
2023-02-18T12:36:48.055Z,2.28
2023-02-18T12:39:33.471Z,2.65
2023-02-18T12:42:33.605Z,2.38
2023-02-18T12:45:53.900Z,2.55
2023-02-18T12:48:32.962Z,2.33
2023-02-18T12:51:24.166Z,2.65
2023-02-18T12:53:56.627Z,3.08
2023-02-18T12:56:33.807Z,3.03
2023-02-18T12:59:18.980Z,2.83
2023-02-18T13:02:30.899Z,3.45
2023-02-18T13:05:16.517Z,3.35
2023-02-18T13:08:20.065Z,2.97
2023-02-18T13:11:23.524Z,2.92
2023-02-18T13:14:11.830Z,3.00
2023-02-18T13:16:41.437Z,3.50
2023-02-18T13:19:24.483Z,2.75
2023-02-18T13:21:55.933Z,3.33
2023-02-18T13:24:35.675Z,2.55
2023-02-18T13:27:17.442Z,3.40
2023-02-18T13:29:52.964Z,3.03
2023-02-18T13:32:38.268Z,3.38
2023-02-18T13:35:13.479Z,3.50
2023-02-18T13:37:55.166Z,3.30
2023-02-18T13:40:26.209Z,3.25
2023-02-18T13:42:54.100Z,3.65
2023-02-18T13:45:25.386Z,3.17
2023-02-18T13:47:53.098Z,3.70
2023-02-18T13:50:22.861Z,3.55
2023-02-18T13:52:51.283Z,3.67
2023-02-18T13:55:25.810Z,3.85
2023-02-18T13:57:55.490Z,4.10
2023-02-18T14:00:34.598Z,3.97
2023-02-18T14:03:20.265Z,3.55
2023-02-18T14:05:47.200Z,3.85
2023-02-18T14:08:28.741Z,3.78
2023-02-18T14:11:14.364Z,4.07
2023-02-18T14:14:16.367Z,4.22
2023-02-18T14:17:14.718Z,5.32
2023-02-18T14:19:41.358Z,4.25
2023-02-18T14:22:29.893Z,4.72
2023-02-18T14:25:03.874Z,4.85
2023-02-18T14:27:30.588Z,4.47
2023-02-18T14:30:07.736Z,4.90
2023-02-18T14:32:34.722Z,4.20
2023-02-18T14:35:04.097Z,4.13
2023-02-18T14:37:52.325Z,4.53
2023-02-18T14:40:33.806Z,4.25
2023-02-18T14:43:12.615Z,4.22
2023-02-18T14:45:48.002Z,4.05
2023-02-18T14:48:50.295Z,3.83
2023-02-18T14:51:21.652Z,3.90
2023-02-18T14:53:48.642Z,3.80
2023-02-18T14:56:18.465Z,3.35
2023-02-18T14:58:59.902Z,3.20
2023-02-18T15:01:32.702Z,3.80
2023-02-18T15:04:01.322Z,3.85
2023-02-18T15:06:37.008Z,3.63
2023-02-18T15:09:20.930Z,3.60
2023-02-18T15:11:57.206Z,3.58
2023-02-18T15:14:27.407Z,3.60
2023-02-18T15:16:54.138Z,3.35
2023-02-18T15:19:24.971Z,3.60
2023-02-18T15:21:55.298Z,3.85
2023-02-18T15:24:30.059Z,3.85
2023-02-18T15:27:02.097Z,3.90
2023-02-18T15:29:36.185Z,3.42
2023-02-18T15:32:19.469Z,3.95
2023-02-18T15:34:49.597Z,4.32
2023-02-18T15:37:16.197Z,3.50
2023-02-18T15:39:43.702Z,3.88
2023-02-18T15:42:20.281Z,3.85
2023-02-18T15:45:18.139Z,3.88
2023-02-18T15:47:47.898Z,3.95
2023-02-18T15:50:26.386Z,3.60
2023-02-18T15:52:55.822Z,3.92
2023-02-18T15:55:30.087Z,3.92
2023-02-18T15:57:57.067Z,3.40
2023-02-18T16:00:47.846Z,4.05
2023-02-18T16:03:25.456Z,4.20
2023-02-18T16:06:19.399Z,3.47
2023-02-18T16:09:13.922Z,3.95
2023-02-18T16:11:44.978Z,4.38
2023-02-18T16:14:20.557Z,4.28
2023-02-18T16:17:10.017Z,3.88
2023-02-18T16:20:03.885Z,4.00
2023-02-18T16:22:37.204Z,3.60
2023-02-18T16:25:12.798Z,3.63
2023-02-18T16:27:50.572Z,4.00
2023-02-18T16:30:18.894Z,4.18
2023-02-18T16:32:45.898Z,3.90
2023-02-18T16:35:13.152Z,3.75
2023-02-18T16:37:41.623Z,4.00
2023-02-18T16:40:22.502Z,4.00
2023-02-18T16:42:49.202Z,4.38
2023-02-18T16:45:16.007Z,3.83
2023-02-18T16:47:44.898Z,3.80
2023-02-18T16:50:18.705Z,3.65
2023-02-18T16:52:45.741Z,3.67
2023-02-18T16:55:24.637Z,3.85
2023-02-18T16:57:51.212Z,3.50
2023-02-18T17:00:18.867Z,4.40
2023-02-18T17:02:50.995Z,4.13
2023-02-18T17:05:26.907Z,3.97
2023-02-18T17:07:54.649Z,4.60
2023-02-18T17:10:21.293Z,4.10
2023-02-18T17:12:47.866Z,3.72
2023-02-18T17:15:26.626Z,3.70
2023-02-18T17:17:53.334Z,3.75
2023-02-18T17:20:20.982Z,3.90
2023-02-18T17:22:47.604Z,3.65
2023-02-18T17:25:24.621Z,3.05
2023-02-18T17:27:51.267Z,3.50
2023-02-18T17:30:18.151Z,3.42
2023-02-18T17:32:45.499Z,3.03
2023-02-18T17:35:21.043Z,3.17
2023-02-18T17:37:48.711Z,3.13
2023-02-18T17:40:17.595Z,3.03
2023-02-18T17:42:44.251Z,3.33
2023-02-18T17:45:29.182Z,3.58
2023-02-18T17:47:57.109Z,3.22
2023-02-18T17:50:24.039Z,3.70
2023-02-18T17:52:50.697Z,3.70
2023-02-18T17:55:22.267Z,3.47
2023-02-18T17:57:50.054Z,4.00
2023-02-18T18:00:20.225Z,3.85
2023-02-18T18:02:46.853Z,4.60
2023-02-18T18:05:38.348Z,4.88
2023-02-18T18:08:06.022Z,6.30
2023-02-18T18:10:36.858Z,4.55
2023-02-18T18:13:07.296Z,4.47
2023-02-18T18:15:37.994Z,4.07
2023-02-18T18:18:05.009Z,5.25
2023-02-18T18:20:33.647Z,5.00
2023-02-18T18:23:03.965Z,6.03
2023-02-18T18:25:36.134Z,5.57
2023-02-18T18:28:02.901Z,5.97
2023-02-18T18:30:31.809Z,6.15
2023-02-18T18:32:58.574Z,6.15
2023-02-18T18:35:35.176Z,5.75
2023-02-18T18:38:02.543Z,6.35
2023-02-18T18:40:31.865Z,6.13
2023-02-18T18:43:00.155Z,5.60
2023-02-18T18:45:39.912Z,5.85
2023-02-18T18:48:07.164Z,5.43
2023-02-18T18:50:34.137Z,5.55
2023-02-18T18:53:00.715Z,5.35
2023-02-18T18:55:39.457Z,4.93
2023-02-18T18:58:06.306Z,5.20
2023-02-18T19:00:36.242Z,5.22
2023-02-18T19:03:04.309Z,5.30
2023-02-18T19:05:40.016Z,4.95
2023-02-18T19:08:08.782Z,4.82
2023-02-18T19:10:43.823Z,5.63
2023-02-18T19:13:31.242Z,4.65
2023-02-18T19:16:08.099Z,5.00
2023-02-18T19:18:35.238Z,5.72
2023-02-18T19:21:02.053Z,5.65
2023-02-18T19:23:28.760Z,5.45
2023-02-18T19:25:56.344Z,5.60
2023-02-18T19:28:22.996Z,5.13
2023-02-18T19:30:49.660Z,6.75
2023-02-18T19:33:17.601Z,6.30
2023-02-18T19:35:44.619Z,5.57
2023-02-18T19:38:13.783Z,5.97
2023-02-18T19:40:40.859Z,5.88
2023-02-18T19:43:08.364Z,6.65
2023-02-18T19:45:35.536Z,6.15
2023-02-18T19:48:02.386Z,6.20
2023-02-18T19:50:32.679Z,5.82
2023-02-18T19:52:59.904Z,6.25
2023-02-18T19:55:26.964Z,6.25
2023-02-18T19:57:53.723Z,6.00
2023-02-18T20:00:22.337Z,5.70
2023-02-18T20:02:50.167Z,6.95
2023-02-18T20:05:17.501Z,6.90
2023-02-18T20:07:46.551Z,6.90
2023-02-18T20:10:15.968Z,6.22
2023-02-18T20:12:42.667Z,6.75
2023-02-18T20:15:09.431Z,7.78
2023-02-18T20:17:37.709Z,7.43
2023-02-18T20:20:04.710Z,7.20
2023-02-18T20:22:31.377Z,7.35
2023-02-18T20:24:57.967Z,7.63
2023-02-18T20:27:24.571Z,7.13
2023-02-18T20:29:51.346Z,7.38
2023-02-18T20:32:19.110Z,8.13
2023-02-18T20:34:45.998Z,8.60
2023-02-18T20:37:12.625Z,8.85
2023-02-18T20:39:39.339Z,8.57
2023-02-18T20:42:15.845Z,9.00
2023-02-18T20:44:43.677Z,8.95
2023-02-18T20:47:10.375Z,8.77
2023-02-18T20:49:37.016Z,8.00
2023-02-18T20:52:03.763Z,8.20
2023-02-18T20:54:30.487Z,9.10
2023-02-18T20:56:57.066Z,8.52
2023-02-18T20:59:23.946Z,9.25
2023-02-18T21:01:50.644Z,8.90
2023-02-18T21:04:19.815Z,8.88
2023-02-18T21:06:47.371Z,9.85
2023-02-18T21:09:15.747Z,8.85
2023-02-18T21:11:43.518Z,8.20
2023-02-18T21:14:10.765Z,9.00
2023-02-18T21:16:40.365Z,8.27
2023-02-18T21:19:15.657Z,8.20
2023-02-18T21:21:43.322Z,7.63
2023-02-18T21:24:10.147Z,8.70
2023-02-18T21:26:37.117Z,7.57
2023-02-18T21:29:07.849Z,7.63
2023-02-18T21:31:39.841Z,7.53
2023-02-18T21:34:07.933Z,6.72
2023-02-18T21:36:34.562Z,7.90
2023-02-18T21:39:03.881Z,6.93
2023-02-18T21:41:32.706Z,7.78
2023-02-18T21:43:59.396Z,7.82
2023-02-18T21:46:29.084Z,8.02
2023-02-18T21:49:02.035Z,7.35
2023-02-18T21:51:48.491Z,8.02
2023-02-18T21:54:16.743Z,8.30
2023-02-18T21:56:43.370Z,7.35
2023-02-18T21:59:10.087Z,7.78
2023-02-18T22:01:36.690Z,7.00
2023-02-18T22:04:03.398Z,6.40
2023-02-18T22:06:30.125Z,7.75
2023-02-18T22:08:59.004Z,7.13
2023-02-18T22:11:25.646Z,8.05
2023-02-18T22:13:52.263Z,4.72
2023-02-18T22:16:18.904Z,7.47
2023-02-18T22:18:45.546Z,6.28
2023-02-18T22:21:12.381Z,7.60
2023-02-18T22:23:40.271Z,5.32
2023-02-18T22:26:08.918Z,7.55
2023-02-18T22:28:36.261Z,7.65
2023-02-18T22:31:07.671Z,7.53
2023-02-18T22:33:34.509Z,7.00
2023-02-18T22:36:07.247Z,7.30
2023-02-18T22:38:38.450Z,7.20
2023-02-18T22:41:10.616Z,6.80
2023-02-18T22:43:37.660Z,7.05
2023-02-18T22:46:10.955Z,7.25
2023-02-18T22:48:38.914Z,5.47
2023-02-18T22:51:08.852Z,6.88
2023-02-18T22:53:36.191Z,7.80
2023-02-18T22:56:05.608Z,7.40
2023-02-18T22:58:32.240Z,7.93
2023-02-18T23:00:58.942Z,7.22
2023-02-18T23:03:28.897Z,7.13
2023-02-18T23:06:00.762Z,8.25
2023-02-18T23:08:27.538Z,7.40
2023-02-18T23:11:05.822Z,6.82
2023-02-18T23:13:33.307Z,7.82
2023-02-18T23:16:02.990Z,6.95
2023-02-18T23:18:30.886Z,7.55
2023-02-18T23:21:18.338Z,7.55
2023-02-18T23:23:46.626Z,6.65
2023-02-18T23:26:13.734Z,7.22
2023-02-18T23:28:50.492Z,7.55
2023-02-18T23:31:18.352Z,6.90
2023-02-18T23:33:46.119Z,7.03
2023-02-18T23:36:18.323Z,6.40
2023-02-18T23:38:49.205Z,6.70
2023-02-18T23:41:17.155Z,6.55
2023-02-18T23:43:44.979Z,6.32
2023-02-18T23:46:12.356Z,6.63
2023-02-18T23:48:39.173Z,7.15
2023-02-18T23:51:07.734Z,5.68
2023-02-18T23:53:35.752Z,6.40
2023-02-18T23:56:21.286Z,5.88
2023-02-18T23:58:53.101Z,6.03
